sensor_id;sensor_type;location;lat;lon;timestamp;temperature;humidity
21815;DHT22;11069;48.988;8.450;2023-04-15T00:00:11;6.80;99.90
21815;DHT22;11069;48.988;8.450;2023-04-15T00:02:37;6.90;99.90
21815;DHT22;11069;48.988;8.450;2023-04-15T00:05:03;6.90;99.90
21815;DHT22;11069;48.988;8.450;2023-04-15T00:07:29;6.90;99.90
21815;DHT22;11069;48.988;8.450;2023-04-15T00:09:56;6.90;99.90
21815;DHT22;11069;48.988;8.450;2023-04-15T00:12:26;6.80;99.90
21815;DHT22;11069;48.988;8.450;2023-04-15T00:14:52;6.70;99.90
21815;DHT22;11069;48.988;8.450;2023-04-15T00:17:18;6.50;99.90
21815;DHT22;11069;48.988;8.450;2023-04-15T00:19:44;6.40;99.90
21815;DHT22;11069;48.988;8.450;2023-04-15T00:22:10;6.20;99.90
21815;DHT22;11069;48.988;8.450;2023-04-15T00:24:36;6.00;99.90
21815;DHT22;11069;48.988;8.450;2023-04-15T00:27:02;6.00;99.90
21815;DHT22;11069;48.988;8.450;2023-04-15T00:29:28;6.10;99.90
21815;DHT22;11069;48.988;8.450;2023-04-15T00:31:55;6.00;99.90
21815;DHT22;11069;48.988;8.450;2023-04-15T00:34:21;5.90;99.90
21815;DHT22;11069;48.988;8.450;2023-04-15T00:36:47;5.70;99.90
21815;DHT22;11069;48.988;8.450;2023-04-15T00:39:13;5.60;99.90
21815;DHT22;11069;48.988;8.450;2023-04-15T00:41:39;5.30;99.90
21815;DHT22;11069;48.988;8.450;2023-04-15T00:44:05;5.10;99.90
21815;DHT22;11069;48.988;8.450;2023-04-15T00:46:33;4.90;99.90
21815;DHT22;11069;48.988;8.450;2023-04-15T00:48:59;4.90;99.90
21815;DHT22;11069;48.988;8.450;2023-04-15T00:51:26;4.80;99.90
21815;DHT22;11069;48.988;8.450;2023-04-15T00:53:51;4.80;99.90
21815;DHT22;11069;48.988;8.450;2023-04-15T00:56:19;4.70;99.90
21815;DHT22;11069;48.988;8.450;2023-04-15T00:58:46;4.70;99.90
21815;DHT22;11069;48.988;8.450;2023-04-15T01:01:12;4.70;99.90
21815;DHT22;11069;48.988;8.450;2023-04-15T01:03:37;4.60;99.90
21815;DHT22;11069;48.988;8.450;2023-04-15T01:06:03;4.60;99.90
21815;DHT22;11069;48.988;8.450;2023-04-15T01:08:29;4.50;99.90
21815;DHT22;11069;48.988;8.450;2023-04-15T01:10:56;4.50;99.90
21815;DHT22;11069;48.988;8.450;2023-04-15T01:13:23;4.50;99.90
21815;DHT22;11069;48.988;8.450;2023-04-15T01:15:50;4.50;99.90
21815;DHT22;11069;48.988;8.450;2023-04-15T01:18:16;4.50;99.90
21815;DHT22;11069;48.988;8.450;2023-04-15T01:20:42;4.40;99.90
21815;DHT22;11069;48.988;8.450;2023-04-15T01:23:08;4.30;99.90
21815;DHT22;11069;48.988;8.450;2023-04-15T01:25:34;4.40;99.90
21815;DHT22;11069;48.988;8.450;2023-04-15T01:28:00;4.40;99.90
21815;DHT22;11069;48.988;8.450;2023-04-15T01:30:26;4.40;99.90
21815;DHT22;11069;48.988;8.450;2023-04-15T01:32:52;4.30;99.90
21815;DHT22;11069;48.988;8.450;2023-04-15T01:35:18;4.30;99.90
21815;DHT22;11069;48.988;8.450;2023-04-15T01:37:44;4.30;99.90
21815;DHT22;11069;48.988;8.450;2023-04-15T01:40:10;4.20;99.90
21815;DHT22;11069;48.988;8.450;2023-04-15T01:42:36;4.20;99.90
21815;DHT22;11069;48.988;8.450;2023-04-15T01:45:02;4.10;99.90
21815;DHT22;11069;48.988;8.450;2023-04-15T01:47:28;4.00;99.90
21815;DHT22;11069;48.988;8.450;2023-04-15T01:49:53;4.00;99.90
21815;DHT22;11069;48.988;8.450;2023-04-15T01:52:19;4.00;99.90
21815;DHT22;11069;48.988;8.450;2023-04-15T01:54:45;4.00;99.90
21815;DHT22;11069;48.988;8.450;2023-04-15T01:57:11;3.90;99.90
21815;DHT22;11069;48.988;8.450;2023-04-15T01:59:37;3.90;99.90
21815;DHT22;11069;48.988;8.450;2023-04-15T02:02:02;3.90;99.90
21815;DHT22;11069;48.988;8.450;2023-04-15T02:04:28;3.90;99.90
21815;DHT22;11069;48.988;8.450;2023-04-15T02:06:54;3.90;99.90
21815;DHT22;11069;48.988;8.450;2023-04-15T02:09:20;3.80;99.90
21815;DHT22;11069;48.988;8.450;2023-04-15T02:11:45;3.80;99.90
21815;DHT22;11069;48.988;8.450;2023-04-15T02:14:11;3.70;99.90
21815;DHT22;11069;48.988;8.450;2023-04-15T02:16:37;3.70;99.90
21815;DHT22;11069;48.988;8.450;2023-04-15T02:19:02;3.60;99.90
21815;DHT22;11069;48.988;8.450;2023-04-15T02:21:28;3.50;99.90
21815;DHT22;11069;48.988;8.450;2023-04-15T02:23:54;3.40;99.90
21815;DHT22;11069;48.988;8.450;2023-04-15T02:26:20;3.30;99.90
21815;DHT22;11069;48.988;8.450;2023-04-15T02:28:47;3.40;99.90
21815;DHT22;11069;48.988;8.450;2023-04-15T02:31:12;3.30;99.90
21815;DHT22;11069;48.988;8.450;2023-04-15T02:33:38;3.20;99.90
21815;DHT22;11069;48.988;8.450;2023-04-15T02:36:04;3.20;99.90
21815;DHT22;11069;48.988;8.450;2023-04-15T02:38:29;3.10;99.90
21815;DHT22;11069;48.988;8.450;2023-04-15T02:40:56;3.00;99.90
21815;DHT22;11069;48.988;8.450;2023-04-15T02:43:22;3.00;99.90
21815;DHT22;11069;48.988;8.450;2023-04-15T02:45:48;2.90;99.90
21815;DHT22;11069;48.988;8.450;2023-04-15T02:48:14;2.90;99.90
21815;DHT22;11069;48.988;8.450;2023-04-15T02:50:42;2.90;99.90
21815;DHT22;11069;48.988;8.450;2023-04-15T02:53:07;3.00;99.90
21815;DHT22;11069;48.988;8.450;2023-04-15T02:55:33;3.00;99.90
21815;DHT22;11069;48.988;8.450;2023-04-15T02:57:59;2.90;99.90
21815;DHT22;11069;48.988;8.450;2023-04-15T03:00:25;2.80;99.90
21815;DHT22;11069;48.988;8.450;2023-04-15T03:03:03;2.70;99.90
21815;DHT22;11069;48.988;8.450;2023-04-15T03:05:29;2.60;99.90
21815;DHT22;11069;48.988;8.450;2023-04-15T03:07:54;2.50;99.90
21815;DHT22;11069;48.988;8.450;2023-04-15T03:10:20;2.60;99.90
21815;DHT22;11069;48.988;8.450;2023-04-15T03:12:47;2.50;99.90
21815;DHT22;11069;48.988;8.450;2023-04-15T03:15:12;2.50;99.90
21815;DHT22;11069;48.988;8.450;2023-04-15T03:17:38;2.50;99.90
21815;DHT22;11069;48.988;8.450;2023-04-15T03:20:05;2.50;99.90
21815;DHT22;11069;48.988;8.450;2023-04-15T03:22:31;2.50;99.90
21815;DHT22;11069;48.988;8.450;2023-04-15T03:24:57;2.50;99.90
21815;DHT22;11069;48.988;8.450;2023-04-15T03:27:23;2.50;99.90
21815;DHT22;11069;48.988;8.450;2023-04-15T03:29:49;2.60;99.90
21815;DHT22;11069;48.988;8.450;2023-04-15T03:32:15;2.50;99.90
21815;DHT22;11069;48.988;8.450;2023-04-15T03:34:41;2.40;99.90
21815;DHT22;11069;48.988;8.450;2023-04-15T03:37:06;2.30;99.90
21815;DHT22;11069;48.988;8.450;2023-04-15T03:39:33;2.30;99.90
21815;DHT22;11069;48.988;8.450;2023-04-15T03:41:58;2.30;99.90
21815;DHT22;11069;48.988;8.450;2023-04-15T03:44:26;2.20;99.90
21815;DHT22;11069;48.988;8.450;2023-04-15T03:46:51;2.20;99.90
21815;DHT22;11069;48.988;8.450;2023-04-15T03:49:17;2.20;99.90
21815;DHT22;11069;48.988;8.450;2023-04-15T03:51:43;2.20;99.90
21815;DHT22;11069;48.988;8.450;2023-04-15T03:54:15;2.10;99.90
21815;DHT22;11069;48.988;8.450;2023-04-15T03:56:41;2.10;99.90
21815;DHT22;11069;48.988;8.450;2023-04-15T03:59:06;2.20;99.90
21815;DHT22;11069;48.988;8.450;2023-04-15T04:01:32;2.10;99.90
21815;DHT22;11069;48.988;8.450;2023-04-15T04:03:57;2.00;99.90
21815;DHT22;11069;48.988;8.450;2023-04-15T04:06:23;2.00;99.90
21815;DHT22;11069;48.988;8.450;2023-04-15T04:08:48;2.00;99.90
21815;DHT22;11069;48.988;8.450;2023-04-15T04:11:14;1.90;99.90
21815;DHT22;11069;48.988;8.450;2023-04-15T04:13:40;1.80;99.90
21815;DHT22;11069;48.988;8.450;2023-04-15T04:16:06;2.00;99.90
21815;DHT22;11069;48.988;8.450;2023-04-15T04:18:32;2.00;99.90
21815;DHT22;11069;48.988;8.450;2023-04-15T04:20:58;2.00;99.90
21815;DHT22;11069;48.988;8.450;2023-04-15T04:23:24;2.00;99.90
21815;DHT22;11069;48.988;8.450;2023-04-15T04:25:49;2.10;99.90
21815;DHT22;11069;48.988;8.450;2023-04-15T04:28:15;2.10;99.90
21815;DHT22;11069;48.988;8.450;2023-04-15T04:30:41;2.10;99.90
21815;DHT22;11069;48.988;8.450;2023-04-15T04:33:06;2.00;99.90
21815;DHT22;11069;48.988;8.450;2023-04-15T04:35:32;2.00;99.90
21815;DHT22;11069;48.988;8.450;2023-04-15T04:37:59;2.00;99.90
21815;DHT22;11069;48.988;8.450;2023-04-15T04:40:25;1.90;99.90
21815;DHT22;11069;48.988;8.450;2023-04-15T04:42:52;1.80;99.90
21815;DHT22;11069;48.988;8.450;2023-04-15T04:45:18;1.90;99.90
21815;DHT22;11069;48.988;8.450;2023-04-15T04:47:44;1.90;99.90
21815;DHT22;11069;48.988;8.450;2023-04-15T04:50:10;1.90;99.90
21815;DHT22;11069;48.988;8.450;2023-04-15T04:52:36;2.00;99.90
21815;DHT22;11069;48.988;8.450;2023-04-15T04:55:02;2.10;99.90
21815;DHT22;11069;48.988;8.450;2023-04-15T04:57:27;2.00;99.90
21815;DHT22;11069;48.988;8.450;2023-04-15T04:59:53;2.00;99.90
21815;DHT22;11069;48.988;8.450;2023-04-15T05:02:18;2.00;99.90
21815;DHT22;11069;48.988;8.450;2023-04-15T05:04:44;2.00;99.90
21815;DHT22;11069;48.988;8.450;2023-04-15T05:07:09;2.00;99.90
21815;DHT22;11069;48.988;8.450;2023-04-15T05:09:35;2.10;99.90
21815;DHT22;11069;48.988;8.450;2023-04-15T05:12:02;2.10;99.90
21815;DHT22;11069;48.988;8.450;2023-04-15T05:14:28;2.20;99.90
21815;DHT22;11069;48.988;8.450;2023-04-15T05:16:53;2.20;99.90
21815;DHT22;11069;48.988;8.450;2023-04-15T05:19:19;2.20;99.90
21815;DHT22;11069;48.988;8.450;2023-04-15T05:21:44;2.20;99.90
21815;DHT22;11069;48.988;8.450;2023-04-15T05:24:10;2.30;99.90
21815;DHT22;11069;48.988;8.450;2023-04-15T05:26:35;2.40;99.90
21815;DHT22;11069;48.988;8.450;2023-04-15T05:29:01;2.40;99.90
21815;DHT22;11069;48.988;8.450;2023-04-15T05:31:27;2.60;99.90
21815;DHT22;11069;48.988;8.450;2023-04-15T05:33:52;2.70;99.90
21815;DHT22;11069;48.988;8.450;2023-04-15T05:36:18;2.70;99.90
21815;DHT22;11069;48.988;8.450;2023-04-15T05:38:43;2.90;99.90
21815;DHT22;11069;48.988;8.450;2023-04-15T05:41:09;3.00;99.90
21815;DHT22;11069;48.988;8.450;2023-04-15T05:43:34;3.10;99.90
21815;DHT22;11069;48.988;8.450;2023-04-15T05:46:00;3.20;99.90
21815;DHT22;11069;48.988;8.450;2023-04-15T05:48:26;3.30;99.90
21815;DHT22;11069;48.988;8.450;2023-04-15T05:50:51;3.50;99.90
21815;DHT22;11069;48.988;8.450;2023-04-15T05:53:17;3.60;99.90
21815;DHT22;11069;48.988;8.450;2023-04-15T05:55:42;3.60;99.90
21815;DHT22;11069;48.988;8.450;2023-04-15T05:58:08;3.70;99.90
21815;DHT22;11069;48.988;8.450;2023-04-15T06:00:33;3.90;99.90
21815;DHT22;11069;48.988;8.450;2023-04-15T06:02:59;4.10;99.90
21815;DHT22;11069;48.988;8.450;2023-04-15T06:05:25;4.20;99.90
21815;DHT22;11069;48.988;8.450;2023-04-15T06:07:50;4.30;99.90
21815;DHT22;11069;48.988;8.450;2023-04-15T06:10:16;4.40;99.90
21815;DHT22;11069;48.988;8.450;2023-04-15T06:12:42;4.50;99.90
21815;DHT22;11069;48.988;8.450;2023-04-15T06:15:09;4.60;99.90
21815;DHT22;11069;48.988;8.450;2023-04-15T06:17:35;4.80;99.90
21815;DHT22;11069;48.988;8.450;2023-04-15T06:20:01;5.00;99.90
21815;DHT22;11069;48.988;8.450;2023-04-15T06:22:26;5.10;99.90
21815;DHT22;11069;48.988;8.450;2023-04-15T06:24:52;5.40;99.90
21815;DHT22;11069;48.988;8.450;2023-04-15T06:27:18;5.60;99.90
21815;DHT22;11069;48.988;8.450;2023-04-15T06:29:44;5.70;99.90
21815;DHT22;11069;48.988;8.450;2023-04-15T06:32:10;5.90;99.90
21815;DHT22;11069;48.988;8.450;2023-04-15T06:34:36;6.20;99.90
21815;DHT22;11069;48.988;8.450;2023-04-15T06:37:01;6.40;99.90
21815;DHT22;11069;48.988;8.450;2023-04-15T06:39:27;6.70;99.90
21815;DHT22;11069;48.988;8.450;2023-04-15T06:41:53;7.00;99.90
21815;DHT22;11069;48.988;8.450;2023-04-15T06:44:18;7.20;99.90
21815;DHT22;11069;48.988;8.450;2023-04-15T06:46:44;7.60;99.90
21815;DHT22;11069;48.988;8.450;2023-04-15T06:49:10;8.00;99.90
21815;DHT22;11069;48.988;8.450;2023-04-15T06:51:35;8.90;99.90
21815;DHT22;11069;48.988;8.450;2023-04-15T06:54:02;9.70;99.90
21815;DHT22;11069;48.988;8.450;2023-04-15T06:56:33;10.20;99.90
21815;DHT22;11069;48.988;8.450;2023-04-15T06:58:58;10.40;99.90
21815;DHT22;11069;48.988;8.450;2023-04-15T07:01:24;10.20;99.90
21815;DHT22;11069;48.988;8.450;2023-04-15T07:03:50;10.20;99.90
21815;DHT22;11069;48.988;8.450;2023-04-15T07:06:16;10.60;99.90
21815;DHT22;11069;48.988;8.450;2023-04-15T07:08:41;10.80;99.90
21815;DHT22;11069;48.988;8.450;2023-04-15T07:11:07;11.40;99.90
21815;DHT22;11069;48.988;8.450;2023-04-15T07:13:33;11.50;99.90
21815;DHT22;11069;48.988;8.450;2023-04-15T07:15:58;11.30;99.90
21815;DHT22;11069;48.988;8.450;2023-04-15T07:18:24;11.00;99.90
21815;DHT22;11069;48.988;8.450;2023-04-15T07:20:50;10.60;99.90
21815;DHT22;11069;48.988;8.450;2023-04-15T07:23:15;10.80;99.90
21815;DHT22;11069;48.988;8.450;2023-04-15T07:25:41;10.30;99.90
21815;DHT22;11069;48.988;8.450;2023-04-15T07:28:07;10.40;99.90
21815;DHT22;11069;48.988;8.450;2023-04-15T07:30:32;11.00;99.90
21815;DHT22;11069;48.988;8.450;2023-04-15T07:32:59;10.50;99.90
21815;DHT22;11069;48.988;8.450;2023-04-15T07:35:24;10.70;99.90
21815;DHT22;11069;48.988;8.450;2023-04-15T07:37:50;11.30;99.90
21815;DHT22;11069;48.988;8.450;2023-04-15T07:40:16;12.70;99.90
21815;DHT22;11069;48.988;8.450;2023-04-15T07:42:43;13.40;99.90
21815;DHT22;11069;48.988;8.450;2023-04-15T07:45:09;13.40;98.20
21815;DHT22;11069;48.988;8.450;2023-04-15T07:47:34;12.90;99.00
21815;DHT22;11069;48.988;8.450;2023-04-15T07:50:00;12.70;99.80
21815;DHT22;11069;48.988;8.450;2023-04-15T07:52:27;12.50;98.40
21815;DHT22;11069;48.988;8.450;2023-04-15T07:54:52;11.90;97.80
21815;DHT22;11069;48.988;8.450;2023-04-15T07:57:18;12.90;96.70
21815;DHT22;11069;48.988;8.450;2023-04-15T07:59:44;13.70;95.40
21815;DHT22;11069;48.988;8.450;2023-04-15T08:02:10;13.80;96.30
21815;DHT22;11069;48.988;8.450;2023-04-15T08:04:36;13.10;96.50
21815;DHT22;11069;48.988;8.450;2023-04-15T08:07:02;14.30;96.10
21815;DHT22;11069;48.988;8.450;2023-04-15T08:09:29;15.60;93.70
21815;DHT22;11069;48.988;8.450;2023-04-15T08:11:54;15.40;92.10
21815;DHT22;11069;48.988;8.450;2023-04-15T08:14:21;15.80;92.10
21815;DHT22;11069;48.988;8.450;2023-04-15T08:16:47;15.00;92.20
21815;DHT22;11069;48.988;8.450;2023-04-15T08:19:12;14.90;92.80
21815;DHT22;11069;48.988;8.450;2023-04-15T08:21:38;15.20;92.30
21815;DHT22;11069;48.988;8.450;2023-04-15T08:24:05;15.60;91.90
21815;DHT22;11069;48.988;8.450;2023-04-15T08:26:31;15.50;91.40
21815;DHT22;11069;48.988;8.450;2023-04-15T08:28:56;15.70;91.80
21815;DHT22;11069;48.988;8.450;2023-04-15T08:31:22;15.40;92.20
21815;DHT22;11069;48.988;8.450;2023-04-15T08:33:48;16.90;91.50
21815;DHT22;11069;48.988;8.450;2023-04-15T08:36:16;16.70;90.80
21815;DHT22;11069;48.988;8.450;2023-04-15T08:38:43;16.50;89.60
21815;DHT22;11069;48.988;8.450;2023-04-15T08:44:04;17.10;88.40
21815;DHT22;11069;48.988;8.450;2023-04-15T08:46:33;16.50;89.10
21815;DHT22;11069;48.988;8.450;2023-04-15T08:49:03;16.70;90.40
21815;DHT22;11069;48.988;8.450;2023-04-15T08:51:29;16.70;90.60
21815;DHT22;11069;48.988;8.450;2023-04-15T08:53:55;16.50;90.60
21815;DHT22;11069;48.988;8.450;2023-04-15T08:56:24;16.30;88.90
21815;DHT22;11069;48.988;8.450;2023-04-15T08:58:51;16.00;90.30
21815;DHT22;11069;48.988;8.450;2023-04-15T09:01:16;16.00;90.60
21815;DHT22;11069;48.988;8.450;2023-04-15T09:03:43;15.70;90.20
21815;DHT22;11069;48.988;8.450;2023-04-15T09:06:08;15.80;90.90
21815;DHT22;11069;48.988;8.450;2023-04-15T09:08:34;15.60;90.30
21815;DHT22;11069;48.988;8.450;2023-04-15T09:11:01;15.70;91.00
21815;DHT22;11069;48.988;8.450;2023-04-15T09:13:27;16.40;90.70
21815;DHT22;11069;48.988;8.450;2023-04-15T09:15:53;16.80;88.40
21815;DHT22;11069;48.988;8.450;2023-04-15T09:18:34;17.10;90.00
21815;DHT22;11069;48.988;8.450;2023-04-15T09:23:30;17.80;86.10
21815;DHT22;11069;48.988;8.450;2023-04-15T09:25:56;17.90;87.00
21815;DHT22;11069;48.988;8.450;2023-04-15T09:28:23;18.00;90.00
21815;DHT22;11069;48.988;8.450;2023-04-15T09:30:52;18.00;89.20
21815;DHT22;11069;48.988;8.450;2023-04-15T09:33:19;16.60;89.50
21815;DHT22;11069;48.988;8.450;2023-04-15T09:35:56;16.40;91.20
21815;DHT22;11069;48.988;8.450;2023-04-15T09:38:23;16.60;92.20
21815;DHT22;11069;48.988;8.450;2023-04-15T09:40:50;16.50;89.60
21815;DHT22;11069;48.988;8.450;2023-04-15T09:43:16;16.90;90.50
21815;DHT22;11069;48.988;8.450;2023-04-15T09:45:50;16.20;90.60
21815;DHT22;11069;48.988;8.450;2023-04-15T09:48:23;15.80;90.50
21815;DHT22;11069;48.988;8.450;2023-04-15T09:50:53;15.30;91.40
21815;DHT22;11069;48.988;8.450;2023-04-15T09:53:23;15.70;91.40
21815;DHT22;11069;48.988;8.450;2023-04-15T09:55:57;15.40;91.30
21815;DHT22;11069;48.988;8.450;2023-04-15T09:58:26;15.40;92.00
21815;DHT22;11069;48.988;8.450;2023-04-15T10:00:54;15.80;90.70
21815;DHT22;11069;48.988;8.450;2023-04-15T10:03:23;15.30;91.30
21815;DHT22;11069;48.988;8.450;2023-04-15T10:05:51;15.10;92.10
21815;DHT22;11069;48.988;8.450;2023-04-15T10:08:18;15.40;92.30
21815;DHT22;11069;48.988;8.450;2023-04-15T10:10:45;16.20;93.30
21815;DHT22;11069;48.988;8.450;2023-04-15T10:13:17;16.20;92.50
21815;DHT22;11069;48.988;8.450;2023-04-15T10:15:44;16.10;91.20
21815;DHT22;11069;48.988;8.450;2023-04-15T10:18:19;16.10;91.00
21815;DHT22;11069;48.988;8.450;2023-04-15T10:20:47;15.90;91.90
21815;DHT22;11069;48.988;8.450;2023-04-15T10:23:14;16.30;91.90
21815;DHT22;11069;48.988;8.450;2023-04-15T10:25:40;16.60;92.00
21815;DHT22;11069;48.988;8.450;2023-04-15T10:28:06;16.10;91.60
21815;DHT22;11069;48.988;8.450;2023-04-15T10:30:33;15.90;93.50
21815;DHT22;11069;48.988;8.450;2023-04-15T10:33:00;16.20;93.30
21815;DHT22;11069;48.988;8.450;2023-04-15T10:35:27;16.70;89.80
21815;DHT22;11069;48.988;8.450;2023-04-15T10:37:53;17.10;90.30
21815;DHT22;11069;48.988;8.450;2023-04-15T10:42:50;18.10;88.30
21815;DHT22;11069;48.988;8.450;2023-04-15T10:45:17;18.00;87.90
21815;DHT22;11069;48.988;8.450;2023-04-15T10:47:43;18.10;87.60
21815;DHT22;11069;48.988;8.450;2023-04-15T10:50:08;17.20;89.30
21815;DHT22;11069;48.988;8.450;2023-04-15T10:52:34;17.30;90.50
21815;DHT22;11069;48.988;8.450;2023-04-15T10:57:37;17.40;90.00
21815;DHT22;11069;48.988;8.450;2023-04-15T11:00:10;18.30;90.60
21815;DHT22;11069;48.988;8.450;2023-04-15T11:02:58;17.60;89.10
21815;DHT22;11069;48.988;8.450;2023-04-15T11:05:52;17.30;88.30
21815;DHT22;11069;48.988;8.450;2023-04-15T11:08:18;17.00;87.40
21815;DHT22;11069;48.988;8.450;2023-04-15T11:20:39;17.90;84.30
21815;DHT22;11069;48.988;8.450;2023-04-15T11:23:05;17.90;89.60
21815;DHT22;11069;48.988;8.450;2023-04-15T11:25:32;16.90;88.70
21815;DHT22;11069;48.988;8.450;2023-04-15T11:27:59;17.00;89.60
21815;DHT22;11069;48.988;8.450;2023-04-15T11:30:27;16.40;84.30
21815;DHT22;11069;48.988;8.450;2023-04-15T11:32:58;16.70;87.70
21815;DHT22;11069;48.988;8.450;2023-04-15T11:35:24;17.10;88.20
21815;DHT22;11069;48.988;8.450;2023-04-15T11:37:50;17.70;88.50
21815;DHT22;11069;48.988;8.450;2023-04-15T11:40:19;17.90;85.00
21815;DHT22;11069;48.988;8.450;2023-04-15T11:42:46;18.30;83.40
21815;DHT22;11069;48.988;8.450;2023-04-15T11:45:27;18.40;88.50
21815;DHT22;11069;48.988;8.450;2023-04-15T11:47:53;17.80;86.40
21815;DHT22;11069;48.988;8.450;2023-04-15T11:50:22;17.50;85.80
21815;DHT22;11069;48.988;8.450;2023-04-15T11:52:55;17.20;85.60
21815;DHT22;11069;48.988;8.450;2023-04-15T11:55:22;16.80;89.90
21815;DHT22;11069;48.988;8.450;2023-04-15T11:57:49;16.60;86.40
21815;DHT22;11069;48.988;8.450;2023-04-15T12:00:15;16.80;90.10
21815;DHT22;11069;48.988;8.450;2023-04-15T12:02:42;16.80;85.00
21815;DHT22;11069;48.988;8.450;2023-04-15T12:05:08;16.60;87.10
21815;DHT22;11069;48.988;8.450;2023-04-15T12:07:57;16.70;87.30
21815;DHT22;11069;48.988;8.450;2023-04-15T12:10:26;17.60;89.40
21815;DHT22;11069;48.988;8.450;2023-04-15T12:12:52;17.90;85.90
21815;DHT22;11069;48.988;8.450;2023-04-15T12:15:21;18.50;83.80
21815;DHT22;11069;48.988;8.450;2023-04-15T12:17:48;18.60;83.50
21815;DHT22;11069;48.988;8.450;2023-04-15T12:20:20;17.90;81.30
21815;DHT22;11069;48.988;8.450;2023-04-15T12:22:46;16.90;80.50
21815;DHT22;11069;48.988;8.450;2023-04-15T12:25:12;16.40;83.00
21815;DHT22;11069;48.988;8.450;2023-04-15T12:27:37;16.80;84.80
21815;DHT22;11069;48.988;8.450;2023-04-15T12:30:04;16.90;81.00
21815;DHT22;11069;48.988;8.450;2023-04-15T12:32:34;16.80;82.70
21815;DHT22;11069;48.988;8.450;2023-04-15T12:35:00;16.70;81.90
21815;DHT22;11069;48.988;8.450;2023-04-15T12:37:26;16.80;83.20
21815;DHT22;11069;48.988;8.450;2023-04-15T12:39:51;16.70;83.50
21815;DHT22;11069;48.988;8.450;2023-04-15T12:42:18;16.90;80.70
21815;DHT22;11069;48.988;8.450;2023-04-15T12:44:47;17.10;76.20
21815;DHT22;11069;48.988;8.450;2023-04-15T12:47:13;17.10;78.30
21815;DHT22;11069;48.988;8.450;2023-04-15T12:49:39;17.10;76.90
21815;DHT22;11069;48.988;8.450;2023-04-15T12:52:05;16.90;71.50
21815;DHT22;11069;48.988;8.450;2023-04-15T12:54:31;17.50;69.70
21815;DHT22;11069;48.988;8.450;2023-04-15T12:56:57;17.80;72.80
21815;DHT22;11069;48.988;8.450;2023-04-15T12:59:23;18.00;75.50
21815;DHT22;11069;48.988;8.450;2023-04-15T13:01:50;17.40;71.50
21815;DHT22;11069;48.988;8.450;2023-04-15T13:04:16;17.40;75.70
21815;DHT22;11069;48.988;8.450;2023-04-15T13:06:42;17.30;72.20
21815;DHT22;11069;48.988;8.450;2023-04-15T13:09:08;17.30;75.40
21815;DHT22;11069;48.988;8.450;2023-04-15T13:11:33;17.10;75.50
21815;DHT22;11069;48.988;8.450;2023-04-15T13:14:01;17.20;78.40
21815;DHT22;11069;48.988;8.450;2023-04-15T13:16:27;17.30;76.80
21815;DHT22;11069;48.988;8.450;2023-04-15T13:18:52;16.80;74.70
21815;DHT22;11069;48.988;8.450;2023-04-15T13:21:18;16.70;79.20
21815;DHT22;11069;48.988;8.450;2023-04-15T13:23:44;15.90;81.60
21815;DHT22;11069;48.988;8.450;2023-04-15T13:26:10;15.50;83.50
21815;DHT22;11069;48.988;8.450;2023-04-15T13:28:35;15.30;84.20
21815;DHT22;11069;48.988;8.450;2023-04-15T13:31:01;15.20;86.50
21815;DHT22;11069;48.988;8.450;2023-04-15T13:33:27;15.40;86.00
21815;DHT22;11069;48.988;8.450;2023-04-15T13:35:53;15.60;87.20
21815;DHT22;11069;48.988;8.450;2023-04-15T13:38:19;15.30;83.50
21815;DHT22;11069;48.988;8.450;2023-04-15T13:40:44;15.20;85.00
21815;DHT22;11069;48.988;8.450;2023-04-15T13:43:11;15.00;87.30
21815;DHT22;11069;48.988;8.450;2023-04-15T13:45:36;14.90;87.70
21815;DHT22;11069;48.988;8.450;2023-04-15T13:48:02;14.80;88.50
21815;DHT22;11069;48.988;8.450;2023-04-15T13:50:28;14.70;88.30
21815;DHT22;11069;48.988;8.450;2023-04-15T13:52:53;14.90;89.40
21815;DHT22;11069;48.988;8.450;2023-04-15T13:55:19;14.80;89.90
21815;DHT22;11069;48.988;8.450;2023-04-15T13:57:45;14.80;90.30
21815;DHT22;11069;48.988;8.450;2023-04-15T14:00:11;14.60;90.00
21815;DHT22;11069;48.988;8.450;2023-04-15T14:02:36;14.50;90.40
21815;DHT22;11069;48.988;8.450;2023-04-15T14:05:02;14.50;90.30
21815;DHT22;11069;48.988;8.450;2023-04-15T14:07:31;14.40;91.20
21815;DHT22;11069;48.988;8.450;2023-04-15T14:09:56;14.20;91.00
21815;DHT22;11069;48.988;8.450;2023-04-15T14:12:22;14.30;91.20
21815;DHT22;11069;48.988;8.450;2023-04-15T14:14:47;14.10;91.00
21815;DHT22;11069;48.988;8.450;2023-04-15T14:17:13;14.00;91.40
21815;DHT22;11069;48.988;8.450;2023-04-15T14:19:39;14.00;91.10
21815;DHT22;11069;48.988;8.450;2023-04-15T14:22:04;14.10;91.20
21815;DHT22;11069;48.988;8.450;2023-04-15T14:24:30;14.10;91.80
21815;DHT22;11069;48.988;8.450;2023-04-15T14:26:57;14.20;91.80
21815;DHT22;11069;48.988;8.450;2023-04-15T14:29:22;14.30;91.70
21815;DHT22;11069;48.988;8.450;2023-04-15T14:31:48;14.20;91.20
21815;DHT22;11069;48.988;8.450;2023-04-15T14:34:15;14.00;90.80
21815;DHT22;11069;48.988;8.450;2023-04-15T14:36:41;14.00;91.50
21815;DHT22;11069;48.988;8.450;2023-04-15T14:39:07;14.00;90.10
21815;DHT22;11069;48.988;8.450;2023-04-15T14:41:33;14.00;90.90
21815;DHT22;11069;48.988;8.450;2023-04-15T14:43:59;13.90;90.70
21815;DHT22;11069;48.988;8.450;2023-04-15T14:46:25;14.00;91.50
21815;DHT22;11069;48.988;8.450;2023-04-15T14:48:51;13.90;90.20
21815;DHT22;11069;48.988;8.450;2023-04-15T14:51:17;14.00;91.30
21815;DHT22;11069;48.988;8.450;2023-04-15T14:53:43;14.10;89.60
21815;DHT22;11069;48.988;8.450;2023-04-15T14:56:09;14.20;90.40
21815;DHT22;11069;48.988;8.450;2023-04-15T14:58:34;14.30;90.40
21815;DHT22;11069;48.988;8.450;2023-04-15T15:01:00;14.20;89.60
21815;DHT22;11069;48.988;8.450;2023-04-15T15:03:27;14.20;88.90
21815;DHT22;11069;48.988;8.450;2023-04-15T15:05:53;14.20;88.70
21815;DHT22;11069;48.988;8.450;2023-04-15T15:08:18;14.10;88.40
21815;DHT22;11069;48.988;8.450;2023-04-15T15:10:44;14.10;88.90
21815;DHT22;11069;48.988;8.450;2023-04-15T15:13:11;14.10;87.90
21815;DHT22;11069;48.988;8.450;2023-04-15T15:15:37;14.10;87.60
21815;DHT22;11069;48.988;8.450;2023-04-15T15:18:03;14.10;86.40
21815;DHT22;11069;48.988;8.450;2023-04-15T15:20:29;14.20;87.60
21815;DHT22;11069;48.988;8.450;2023-04-15T15:22:55;14.20;88.60
21815;DHT22;11069;48.988;8.450;2023-04-15T15:25:21;14.10;87.40
21815;DHT22;11069;48.988;8.450;2023-04-15T15:27:47;14.00;87.80
21815;DHT22;11069;48.988;8.450;2023-04-15T15:30:13;13.80;86.80
21815;DHT22;11069;48.988;8.450;2023-04-15T15:32:39;13.90;87.80
21815;DHT22;11069;48.988;8.450;2023-04-15T15:35:09;13.80;89.60
21815;DHT22;11069;48.988;8.450;2023-04-15T15:37:35;13.80;86.90
21815;DHT22;11069;48.988;8.450;2023-04-15T15:40:03;13.80;86.70
21815;DHT22;11069;48.988;8.450;2023-04-15T15:42:30;13.80;88.60
21815;DHT22;11069;48.988;8.450;2023-04-15T15:44:56;13.90;87.80
21815;DHT22;11069;48.988;8.450;2023-04-15T15:47:21;13.80;88.60
21815;DHT22;11069;48.988;8.450;2023-04-15T15:49:47;13.80;87.40
21815;DHT22;11069;48.988;8.450;2023-04-15T15:52:12;13.70;88.40